Time;durP1;ratioP1;P1;durP2;ratioP2;P2;SDS_P1;SDS_P2;PMS_P1;PMS_P2;Temp;Humidity;BMP_temperature;BMP_pressure;BME280_temperature;BME280_humidity;BME280_pressure;Samples;Min_cycle;Max_cycle;Signal;HPM_P1;HPM_P2
2021/05/26 00:01:52;;;;;;;12.43;5.85;;;;;;;15.18;72.11;100829.02;1815273;79;21073;-77
2021/05/26 00:04:19;;;;;;;7.95;5.78;;;;;;;15.15;72.18;100823.53;1815689;78;21618;-78
2021/05/26 00:06:47;;;;;;;11.15;6.45;;;;;;;15.14;72.24;100821.07;1774057;79;21650;-77
2021/05/26 00:09:14;;;;;;;13.22;6.67;;;;;;;15.12;72.34;100813.73;1762490;81;21093;-77
2021/05/26 00:11:41;;;;;;;10.75;6.62;;;;;;;15.07;72.44;100814.86;1762404;81;21556;-77
2021/05/26 00:14:09;;;;;;;10.60;6.97;;;;;;;15.04;72.56;100817.39;1758833;81;20974;-76
2021/05/26 00:16:37;;;;;;;13.25;6.55;;;;;;;15.00;72.64;100809.44;1748530;79;21053;-76
2021/05/26 00:19:07;;;;;;;12.15;6.50;;;;;;;14.99;72.82;100816.35;1743373;82;21079;-76
2021/05/26 00:21:35;;;;;;;10.80;7.78;;;;;;;14.93;73.04;100822.80;1759539;79;20956;-77
2021/05/26 00:24:03;;;;;;;12.23;7.20;;;;;;;14.89;73.13;100816.18;1758703;81;20983;-76
2021/05/26 00:26:30;;;;;;;14.85;6.92;;;;;;;14.88;73.17;100823.05;1759796;79;21011;-76
2021/05/26 00:28:57;;;;;;;10.98;7.05;;;;;;;14.85;73.27;100820.27;1709834;83;21059;-76
2021/05/26 00:31:25;;;;;;;11.45;7.08;;;;;;;14.83;73.45;100816.15;1758843;81;20951;-76
2021/05/26 00:33:53;;;;;;;12.23;7.00;;;;;;;14.81;73.53;100820.34;1758903;81;21134;-76
2021/05/26 00:36:19;;;;;;;13.53;7.20;;;;;;;14.78;73.66;100819.41;1709080;82;20967;-76
2021/05/26 00:38:48;;;;;;;12.45;7.55;;;;;;;14.76;73.75;100812.61;1743300;82;21562;-76
2021/05/26 00:41:15;;;;;;;15.78;7.30;;;;;;;14.75;73.78;100817.13;1743452;82;20967;-76
2021/05/26 00:43:44;;;;;;;10.82;7.78;;;;;;;14.73;73.80;100821.83;1755408;79;21022;-75
2021/05/26 00:46:10;;;;;;;12.10;7.87;;;;;;;14.72;73.82;100820.20;1785808;79;21053;-77
2021/05/26 00:48:37;;;;;;;10.58;7.10;;;;;;;14.70;73.83;100820.06;1758836;81;20864;-78
2021/05/26 00:51:05;;;;;;;14.38;7.40;;;;;;;14.69;73.89;100825.92;1739306;81;21564;-77
2021/05/26 00:53:33;;;;;;;9.38;5.87;;;;;;;14.68;73.93;100830.14;1759190;79;21001;-77
2021/05/26 00:55:59;;;;;;;9.53;6.72;;;;;;;14.67;73.99;100831.98;1779718;79;21479;-77
2021/05/26 00:58:26;;;;;;;11.50;5.70;;;;;;;14.69;74.08;100835.82;1742482;82;21063;-76
2021/05/26 01:00:55;;;;;;;9.30;5.12;;;;;;;14.69;74.11;100834.48;1742336;82;21039;-76
2021/05/26 01:03:22;;;;;;;9.40;5.70;;;;;;;14.70;74.09;100836.95;1742479;82;20983;-77
2021/05/26 01:05:49;;;;;;;8.15;4.70;;;;;;;14.71;74.14;100830.58;1795536;79;21066;-76
2021/05/26 01:08:17;;;;;;;5.72;4.30;;;;;;;14.71;74.07;100830.58;1758618;81;21480;-76
2021/05/26 01:10:47;;;;;;;10.15;4.90;;;;;;;14.74;74.02;100836.05;1758738;81;21161;-76
2021/05/26 01:13:14;;;;;;;9.18;4.00;;;;;;;14.77;73.93;100841.83;1758670;81;21115;-73
2021/05/26 01:15:42;;;;;;;6.53;4.05;;;;;;;14.78;73.82;100835.47;1773821;79;21551;-77
2021/05/26 01:18:24;;;;;;;5.65;4.03;;;;;;;14.82;73.74;100838.58;1773945;80;21583;-76
2021/05/26 01:20:54;;;;;;;5.58;4.20;;;;;;;14.82;73.66;100833.22;1773900;80;21554;-75
2021/05/26 01:23:21;;;;;;;9.13;5.00;;;;;;;14.82;73.58;100832.72;1752182;80;21134;-76
2021/05/26 01:25:52;;;;;;;8.00;5.12;;;;;;;14.85;73.56;100839.52;1784281;79;21082;-74
2021/05/26 01:28:20;;;;;;;5.25;4.25;;;;;;;14.84;73.45;100837.89;1771840;79;21037;-73
2021/05/26 01:30:48;;;;;;;11.35;5.62;;;;;;;14.81;73.47;100847.11;1773846;80;21165;-75
2021/05/26 01:33:16;;;;;;;5.47;3.45;;;;;;;14.80;73.48;100847.33;1773872;80;21010;-75
2021/05/26 01:35:46;;;;;;;10.43;4.90;;;;;;;14.78;73.50;100843.49;1782685;79;21072;-75
2021/05/26 01:38:17;;;;;;;6.87;5.22;;;;;;;14.78;73.55;100835.97;1811340;79;21054;-76
2021/05/26 01:40:43;;;;;;;6.37;4.92;;;;;;;14.75;73.62;100837.20;1811344;79;21042;-76
2021/05/26 01:43:10;;;;;;;6.35;4.55;;;;;;;14.71;73.77;100833.26;1742460;82;21058;-75
2021/05/26 01:45:38;;;;;;;12.10;4.50;;;;;;;14.65;73.93;100846.09;1735607;82;21002;-73
2021/05/26 01:48:07;;;;;;;9.05;4.47;;;;;;;14.60;74.09;100839.66;1773857;80;21072;-74
2021/05/26 01:50:34;;;;;;;9.68;4.87;;;;;;;14.58;74.29;100837.70;1773859;80;21090;-74
2021/05/26 01:53:05;;;;;;;9.75;5.05;;;;;;;14.53;74.42;100843.62;1773879;80;20999;-74
2021/05/26 01:55:36;;;;;;;11.38;5.53;;;;;;;14.46;74.58;100842.74;1798282;79;21098;-74
2021/05/26 01:58:04;;;;;;;9.18;6.12;;;;;;;14.44;74.75;100836.74;1739440;81;21599;-74
2021/05/26 02:00:39;;;;;;;8.60;5.83;;;;;;;14.46;74.84;100842.20;1708944;82;21529;-74
2021/05/26 02:03:08;;;;;;;10.65;5.62;;;;;;;14.52;74.82;100847.81;1699241;82;20934;-75
2021/05/26 02:05:34;;;;;;;11.83;5.87;;;;;;;14.55;74.82;100842.91;1744303;79;20994;-76
2021/05/26 02:08:01;;;;;;;9.28;5.53;;;;;;;14.59;74.77;100846.84;1743235;82;21005;-75
2021/05/26 02:13:14;;;;;;;12.55;5.55;;;;;;;14.64;74.64;100843.59;1743210;82;21049;-76
2021/05/26 02:15:44;;;;;;;14.87;6.58;;;;;;;14.65;74.60;100844.75;1749152;80;21035;-76
2021/05/26 02:18:13;;;;;;;12.82;5.62;;;;;;;14.65;74.57;100844.75;1773696;80;21091;-76
2021/05/26 02:20:41;;;;;;;11.65;5.58;;;;;;;14.66;74.55;100844.22;1773787;80;20919;-75
2021/05/26 02:23:10;;;;;;;11.00;5.60;;;;;;;14.68;74.53;100842.19;1774158;80;20971;-76
2021/05/26 02:25:38;;;;;;;7.25;5.28;;;;;;;14.68;74.54;100840.34;1769169;79;21249;-76
2021/05/26 02:28:05;;;;;;;7.55;4.78;;;;;;;14.70;74.52;100844.14;1811560;79;21031;-77
2021/05/26 02:30:32;;;;;;;9.75;5.08;;;;;;;14.72;74.52;100842.12;1742541;82;20986;-76
2021/05/26 02:32:59;;;;;;;7.37;5.25;;;;;;;14.75;74.45;100843.89;1742567;82;20962;-76
2021/05/26 02:35:25;;;;;;;9.20;5.05;;;;;;;14.78;74.41;100843.49;1740225;81;21039;-75
2021/05/26 02:37:51;;;;;;;11.45;5.03;;;;;;;14.83;74.34;100846.42;1773924;80;21486;-76
2021/05/26 02:40:18;;;;;;;9.90;5.22;;;;;;;14.87;74.24;100852.21;1771285;79;21444;-75
2021/05/26 02:42:45;;;;;;;12.43;5.95;;;;;;;14.90;74.17;100848.62;1743366;82;20967;-75
2021/05/26 02:45:15;;;;;;;9.93;5.70;;;;;;;14.93;74.13;100850.08;1758913;79;20983;-74
2021/05/26 02:47:43;;;;;;;14.75;6.28;;;;;;;14.93;74.03;100849.57;1758771;81;21094;-74
2021/05/26 02:50:17;;;;;;;7.80;4.78;;;;;;;14.97;74.00;100855.87;1758867;81;21098;-76
2021/05/26 02:52:40;;;;;;;8.68;5.70;;;;;;;15.01;73.91;100857.13;1758305;81;20928;-76
2021/05/26 02:55:11;;;;;;;12.30;5.42;;;;;;;15.03;73.82;100855.10;1758766;81;21567;-75
2021/05/26 02:57:41;;;;;;;10.30;5.62;;;;;;;15.02;73.77;100856.95;1758749;81;21524;-75
2021/05/26 03:00:25;;;;;;;7.55;4.95;;;;;;;15.06;73.71;100852.86;1661350;85;21620;-76
2021/05/26 03:02:53;;;;;;;13.18;5.10;;;;;;;15.12;73.67;100856.07;1688298;84;21657;-77
2021/05/26 03:05:20;;;;;;;18.77;5.47;;;;;;;15.19;73.53;100865.47;1743333;82;21499;-76
2021/05/26 03:07:47;;;;;;;11.57;5.28;;;;;;;15.22;73.43;100864.56;1743396;82;21026;-76
2021/05/26 03:10:17;;;;;;;16.80;5.70;;;;;;;15.26;73.31;100871.69;1743378;82;21034;-76
2021/05/26 03:12:46;;;;;;;18.00;6.12;;;;;;;15.29;73.19;100859.27;1744478;82;21026;-75
2021/05/26 03:15:15;;;;;;;20.20;6.62;;;;;;;15.35;73.04;100862.48;1754951;80;21605;-74
2021/05/26 03:17:42;;;;;;;18.77;6.58;;;;;;;15.38;72.94;100860.73;1696220;83;21502;-74
2021/05/26 03:20:13;;;;;;;14.80;6.00;;;;;;;15.41;72.86;100859.00;1696060;83;21004;-74
2021/05/26 03:22:45;;;;;;;15.25;6.65;;;;;;;15.45;72.84;100856.77;1677589;84;21109;-75
2021/05/26 03:25:25;;;;;;;22.35;7.55;;;;;;;15.51;72.73;100867.55;1646509;82;21105;-70
2021/05/26 03:27:57;;;;;;;28.57;7.60;;;;;;;15.56;72.72;100865.61;1744858;82;21130;-78
2021/05/26 03:30:23;;;;;;;29.15;8.93;;;;;;;15.61;72.74;100873.35;1711386;83;21019;-69
2021/05/26 03:32:50;;;;;;;25.25;7.80;;;;;;;15.66;72.59;100859.36;1715645;82;21028;-69
2021/05/26 03:35:17;;;;;;;25.68;8.78;;;;;;;15.72;72.58;100863.39;1745777;82;21031;-69
2021/05/26 03:37:44;;;;;;;20.20;9.33;;;;;;;15.79;72.52;100866.09;1724028;82;21064;-69
2021/05/26 03:40:13;;;;;;;19.05;9.68;;;;;;;15.80;72.41;100865.91;1680272;82;21055;-69
2021/05/26 03:42:42;;;;;;;18.02;10.08;;;;;;;15.83;72.30;100868.17;1723159;83;21018;-69
2021/05/26 03:45:11;;;;;;;19.35;11.60;;;;;;;15.88;72.22;100879.64;1723152;83;21036;-70
2021/05/26 03:47:40;;;;;;;22.75;12.23;;;;;;;15.92;72.12;100878.21;1723144;82;20928;-69
2021/05/26 03:50:12;;;;;;;25.15;12.80;;;;;;;15.96;72.00;100874.09;1717188;83;21042;-69
2021/05/26 03:52:36;;;;;;;42.33;16.52;;;;;;;16.00;71.89;100874.52;1715419;83;21066;-69
2021/05/26 03:55:08;;;;;;;48.02;22.62;;;;;;;16.05;71.76;100872.06;1715724;83;21039;-68
2021/05/26 03:57:35;;;;;;;62.83;31.35;;;;;;;16.10;71.65;100873.61;1729926;82;21039;-66
2021/05/26 04:00:04;;;;;;;69.87;38.40;;;;;;;16.16;71.54;100885.71;1743800;81;21001;-70
2021/05/26 04:02:33;;;;;;;72.03;38.30;;;;;;;16.21;71.43;100879.20;1741060;82;21055;-69
2021/05/26 04:05:00;;;;;;;65.03;29.77;;;;;;;16.27;71.36;100881.60;1700670;83;21069;-68
2021/05/26 04:07:27;;;;;;;102.82;23.27;;;;;;;16.32;71.31;100886.65;1722932;83;21008;-69
2021/05/26 04:09:54;;;;;;;37.83;13.40;;;;;;;16.37;71.33;100881.50;1694204;83;21069;-68
2021/05/26 04:12:21;;;;;;;29.00;14.58;;;;;;;16.45;71.25;100884.51;1723085;83;21003;-69
2021/05/26 04:14:49;;;;;;;26.17;13.78;;;;;;;16.54;71.16;100885.14;1730823;82;21023;-69
2021/05/26 04:17:22;;;;;;;32.05;14.80;;;;;;;16.60;70.99;100889.19;1714608;82;22094;-70
2021/05/26 04:19:53;;;;;;;23.20;14.50;;;;;;;16.66;70.80;100889.70;1680427;84;21079;-72
2021/05/26 04:22:22;;;;;;;18.92;10.00;;;;;;;16.72;70.52;100884.03;1710346;83;20846;-70
2021/05/26 04:24:50;;;;;;;29.07;12.93;;;;;;;16.79;70.33;100884.34;1721974;82;21483;-70
2021/05/26 04:27:17;;;;;;;47.40;28.00;;;;;;;16.84;70.22;100887.20;1702016;84;20999;-70
2021/05/26 04:29:44;;;;;;;59.18;38.90;;;;;;;16.92;70.43;100882.69;1697552;84;21105;-72
2021/05/26 04:32:12;;;;;;;28.32;18.07;;;;;;;16.98;70.48;100883.19;1706667;83;20983;-72
2021/05/26 04:34:38;;;;;;;18.42;8.78;;;;;;;17.04;70.49;100886.36;1710162;83;21000;-72
2021/05/26 04:37:06;;;;;;;13.10;6.28;;;;;;;17.11;70.30;100887.17;1729808;81;20960;-70
2021/05/26 04:39:34;;;;;;;14.43;5.53;;;;;;;17.17;70.12;100882.33;1729673;83;21078;-72
2021/05/26 04:42:01;;;;;;;8.93;5.80;;;;;;;17.23;69.96;100890.36;1729541;83;21445;-72
2021/05/26 04:44:27;;;;;;;10.98;7.00;;;;;;;17.28;69.66;100887.05;1709453;83;21031;-73
2021/05/26 04:46:54;;;;;;;13.22;8.30;;;;;;;17.35;69.41;100890.55;1700402;84;21118;-68
2021/05/26 04:49:23;;;;;;;14.98;6.80;;;;;;;17.42;69.36;100899.41;1705953;81;21024;-67
2021/05/26 04:51:49;;;;;;;12.05;6.58;;;;;;;17.49;69.08;100894.84;1713062;83;21011;-67
2021/05/26 04:54:16;;;;;;;19.00;7.28;;;;;;;17.58;68.98;100892.78;1707284;83;21155;-68
2021/05/26 04:56:44;;;;;;;18.20;9.10;;;;;;;17.65;68.71;100895.75;1792391;79;21063;-68
2021/05/26 04:59:12;;;;;;;22.48;10.65;;;;;;;17.73;68.62;100897.38;1803910;79;20962;-67
2021/05/26 05:01:39;;;;;;;34.75;14.25;;;;;;;17.81;68.62;100902.52;1787082;79;21479;-67
2021/05/26 05:04:07;;;;;;;32.58;13.13;;;;;;;17.89;68.61;100896.07;1767589;80;21039;-67
2021/05/26 05:06:33;;;;;;;24.45;8.70;;;;;;;17.97;68.49;100898.00;1771357;80;21497;-67
2021/05/26 05:09:00;;;;;;;27.40;9.28;;;;;;;18.05;68.38;100899.06;1771044;80;20988;-68
2021/05/26 05:11:27;;;;;;;16.67;7.60;;;;;;;18.14;68.11;100895.61;1770944;80;21047;-67
2021/05/26 05:13:54;;;;;;;11.18;6.78;;;;;;;18.21;67.90;100899.09;1764977;80;21544;-70
2021/05/26 05:16:20;;;;;;;18.42;10.98;;;;;;;18.28;67.63;100906.59;1763409;80;21055;-68
2021/05/26 05:18:48;;;;;;;27.20;16.15;;;;;;;18.35;67.16;100914.65;1708903;82;21041;-68
2021/05/26 05:21:15;;;;;;;18.45;11.45;;;;;;;18.41;66.76;100915.95;1763902;79;21110;-67
2021/05/26 05:23:42;;;;;;;14.90;8.10;;;;;;;18.49;66.75;100913.51;1763193;80;21066;-67
2021/05/26 05:26:08;;;;;;;12.68;6.67;;;;;;;18.54;65.75;100906.44;1767259;80;21495;-67
2021/05/26 05:28:35;;;;;;;13.10;6.08;;;;;;;18.61;65.16;100914.50;1766014;80;21576;-69
2021/05/26 05:31:01;;;;;;;10.80;5.97;;;;;;;18.67;65.50;100920.34;1759713;80;21741;-68
2021/05/26 05:33:28;;;;;;;12.45;6.17;;;;;;;18.75;65.01;100922.77;1762340;79;20975;-68
2021/05/26 05:35:55;;;;;;;13.05;7.08;;;;;;;18.83;64.93;100925.19;1764887;81;21019;-69
2021/05/26 05:38:21;;;;;;;10.98;6.72;;;;;;;18.92;64.44;100933.83;1765152;81;21556;-67
2021/05/26 05:40:48;;;;;;;16.42;7.92;;;;;;;18.97;64.17;100936.16;1749215;79;21673;-68
2021/05/26 05:43:15;;;;;;;13.38;6.60;;;;;;;19.05;64.41;100936.39;1743228;82;21062;-68
2021/05/26 05:45:42;;;;;;;10.53;6.70;;;;;;;19.11;64.34;100936.88;1720959;82;21043;-68
2021/05/26 05:48:10;;;;;;;19.70;10.60;;;;;;;19.17;64.49;100928.72;1760790;79;21469;-68
2021/05/26 05:50:37;;;;;;;28.87;13.43;;;;;;;19.23;64.57;100929.69;1781830;79;21103;-68
2021/05/26 05:53:06;;;;;;;12.45;8.40;;;;;;;19.29;64.20;100923.94;1771437;79;21000;-68
2021/05/26 05:55:33;;;;;;;11.97;6.85;;;;;;;19.39;63.40;100917.50;1779410;80;21072;-69
2021/05/26 05:58:03;;;;;;;11.85;8.18;;;;;;;19.48;63.14;100914.34;1773281;79;21000;-66
2021/05/26 06:00:35;;;;;;;15.95;11.05;;;;;;;19.54;62.62;100905.86;1764227;81;20907;-73
2021/05/26 06:03:01;;;;;;;13.18;7.80;;;;;;;19.64;61.65;100908.31;1770690;79;21122;-71
2021/05/26 06:05:28;;;;;;;17.20;7.40;;;;;;;19.80;60.31;100906.05;1766830;80;21090;-70
2021/05/26 06:07:56;;;;;;;13.55;7.17;;;;;;;19.96;59.34;100904.09;1777726;79;39210;-70
2021/05/26 06:10:22;;;;;;;13.35;6.17;;;;;;;20.10;59.03;100911.78;1762522;79;21416;-75
2021/05/26 06:12:53;;;;;;;7.20;4.80;;;;;;;20.19;58.50;100900.97;1763899;79;21107;-71
2021/05/26 06:15:17;;;;;;;15.10;5.20;;;;;;;20.27;57.30;100894.42;1762286;81;21647;-76
2021/05/26 06:17:45;;;;;;;10.68;5.80;;;;;;;20.35;57.12;100896.00;1770818;80;21555;-76
2021/05/26 06:20:12;;;;;;;7.58;5.12;;;;;;;20.42;56.57;100888.62;1782039;79;21174;-71
2021/05/26 06:22:39;;;;;;;12.93;6.95;;;;;;;20.47;56.52;100891.45;1775829;79;21098;-71
2021/05/26 06:25:10;;;;;;;10.00;5.90;;;;;;;20.53;57.04;100890.52;1716707;82;21056;-76
2021/05/26 06:27:36;;;;;;;8.70;5.20;;;;;;;20.59;57.15;100886.35;1771141;80;21082;-73
2021/05/26 06:30:04;;;;;;;6.92;4.70;;;;;;;20.67;57.10;100896.00;1787491;79;21030;-70
2021/05/26 06:32:30;;;;;;;8.43;4.80;;;;;;;20.74;56.34;100895.36;1811591;79;22031;-70
2021/05/26 06:34:57;;;;;;;13.90;4.72;;;;;;;20.76;57.14;100889.73;1814878;78;21034;-71
2021/05/26 06:37:24;;;;;;;15.55;6.85;;;;;;;20.84;57.57;100896.14;1814491;79;21328;-70
2021/05/26 06:39:53;;;;;;;6.67;4.00;;;;;;;20.92;56.68;100897.16;1808273;79;21185;-69
2021/05/26 06:42:19;;;;;;;7.17;4.33;;;;;;;20.95;56.51;100893.98;1775111;79;21015;-72
2021/05/26 06:44:47;;;;;;;7.15;4.50;;;;;;;20.99;56.60;100893.80;1771853;81;21129;-69
2021/05/26 06:47:14;;;;;;;8.48;4.62;;;;;;;21.04;56.24;100892.55;1771159;81;21066;-70
2021/05/26 06:49:41;;;;;;;6.75;4.00;;;;;;;21.10;56.05;100884.34;1770832;80;21285;-69
2021/05/26 06:52:08;;;;;;;10.38;4.00;;;;;;;21.18;55.99;100888.60;1800247;79;21014;-71
2021/05/26 06:54:34;;;;;;;6.70;3.83;;;;;;;21.24;55.76;100891.70;1713015;82;21047;-69
2021/05/26 06:57:01;;;;;;;5.37;3.67;;;;;;;21.29;55.29;100895.05;1710147;82;21061;-69
2021/05/26 06:59:28;;;;;;;5.47;3.20;;;;;;;21.35;53.67;100893.56;1691787;82;21046;-71
2021/05/26 07:01:55;;;;;;;7.58;3.50;;;;;;;21.41;52.77;100895.34;1687307;85;20979;-70
2021/05/26 07:04:21;;;;;;;8.33;3.37;;;;;;;21.46;52.88;100891.37;1697669;83;21121;-69
2021/05/26 07:06:49;;;;;;;6.62;3.50;;;;;;;21.50;52.28;100899.30;1742410;82;21043;-69
2021/05/26 07:09:15;;;;;;;6.65;3.37;;;;;;;21.56;52.28;100896.98;1779459;80;21079;-69
2021/05/26 07:11:42;;;;;;;8.78;5.30;;;;;;;21.67;52.13;100902.63;1759928;79;21114;-68
2021/05/26 07:14:10;;;;;;;9.85;5.70;;;;;;;21.89;51.03;100890.08;1747814;82;21091;-70
2021/05/26 07:16:37;;;;;;;7.08;4.87;;;;;;;22.04;50.59;100890.41;1769870;79;21617;-68
2021/05/26 07:19:07;;;;;;;14.75;5.10;;;;;;;22.04;50.59;100890.41;1763926;81;21095;-68
2021/05/26 07:21:33;;;;;;;10.23;5.40;;;;;;;22.19;51.03;100892.05;1761536;81;21099;-68
2021/05/26 07:24:00;;;;;;;10.95;3.90;;;;;;;22.50;50.19;100888.81;1760190;79;21044;-69
2021/05/26 07:26:27;;;;;;;8.23;4.28;;;;;;;22.50;50.19;100888.81;1765086;80;21011;-69
2021/05/26 07:28:53;;;;;;;5.80;3.80;;;;;;;22.56;49.99;100886.47;1759916;81;21074;-70
2021/05/26 07:31:20;;;;;;;7.00;3.90;;;;;;;22.58;49.03;100882.70;1744370;81;21085;-70
2021/05/26 07:33:47;;;;;;;7.45;3.87;;;;;;;22.55;49.56;100888.88;1743314;82;21046;-69
2021/05/26 07:36:13;;;;;;;7.47;4.10;;;;;;;22.61;49.35;100888.97;1756961;79;21086;-69
2021/05/26 07:38:40;;;;;;;8.33;4.37;;;;;;;22.64;49.59;100890.66;1766999;79;21118;-70
2021/05/26 07:41:07;;;;;;;10.48;4.62;;;;;;;22.65;49.37;100899.09;1740726;81;21111;-68
2021/05/26 07:43:34;;;;;;;11.68;4.80;;;;;;;22.63;49.40;100884.94;1778685;79;21031;-69
2021/05/26 07:46:01;;;;;;;7.72;4.50;;;;;;;22.63;49.70;100887.66;1747980;80;21089;-70
2021/05/26 07:48:28;;;;;;;6.60;4.25;;;;;;;22.67;49.41;100887.98;1757369;79;21073;-72
2021/05/26 07:50:56;;;;;;;6.67;4.33;;;;;;;22.66;48.94;100887.16;1805237;79;21098;-69
2021/05/26 07:53:23;;;;;;;9.15;4.10;;;;;;;22.65;49.63;100883.36;1776489;79;21081;-70
2021/05/26 07:55:49;;;;;;;10.95;5.25;;;;;;;22.68;49.42;100880.17;1743968;80;21029;-70
2021/05/26 07:58:16;;;;;;;9.85;5.33;;;;;;;22.79;49.84;100887.40;1773300;80;21116;-70
2021/05/26 08:00:42;;;;;;;9.55;4.30;;;;;;;22.94;49.95;100894.41;1777000;79;21038;-69
2021/05/26 08:03:10;;;;;;;10.15;4.70;;;;;;;23.07;49.53;100891.37;1811608;79;21678;-71
2021/05/26 08:05:37;;;;;;;11.30;5.87;;;;;;;23.18;49.84;100891.80;1676693;83;21110;-71
2021/05/26 08:08:08;;;;;;;8.80;5.53;;;;;;;23.31;50.03;100888.72;1718563;80;21475;-72
2021/05/26 08:10:34;;;;;;;9.25;5.00;;;;;;;23.41;49.31;100897.55;1773847;80;21089;-74
2021/05/26 08:13:02;;;;;;;5.62;4.40;;;;;;;23.37;49.17;100897.23;1772384;79;21015;-70
2021/05/26 08:15:28;;;;;;;12.85;4.17;;;;;;;23.29;48.56;100904.97;1742376;82;21041;-70
2021/05/26 08:17:54;;;;;;;7.65;5.37;;;;;;;23.20;47.80;100891.00;1708638;82;21091;-71
2021/05/26 08:20:22;;;;;;;7.35;5.20;;;;;;;23.21;48.09;100887.77;1704073;83;20961;-70
2021/05/26 08:22:50;;;;;;;10.40;5.25;;;;;;;23.33;48.68;100905.58;1698015;83;20960;-69
2021/05/26 08:25:16;;;;;;;6.28;4.85;;;;;;;23.53;49.21;100906.95;1696053;82;21063;-70
2021/05/26 08:27:42;;;;;;;6.85;5.75;;;;;;;23.76;48.36;100906.15;1717117;82;21100;-69
2021/05/26 08:30:09;;;;;;;7.67;5.60;;;;;;;23.95;47.49;100899.84;1759225;81;20971;-69
2021/05/26 08:32:35;;;;;;;8.28;4.40;;;;;;;23.98;46.53;100899.37;1773244;81;21030;-71
2021/05/26 08:35:02;;;;;;;9.73;4.78;;;;;;;23.93;46.06;100912.34;1774217;80;21134;-68
2021/05/26 08:37:30;;;;;;;9.70;4.85;;;;;;;23.89;46.37;100910.38;1767818;80;21046;-69
2021/05/26 08:39:57;;;;;;;9.28;4.17;;;;;;;23.90;46.98;100899.81;1807275;79;21053;-70
2021/05/26 08:42:24;;;;;;;6.03;3.90;;;;;;;24.02;46.41;100901.03;1769647;79;21015;-70
2021/05/26 08:44:52;;;;;;;8.53;4.17;;;;;;;24.10;46.62;100897.30;1773049;81;21527;-73
2021/05/26 08:47:19;;;;;;;9.85;5.83;;;;;;;24.19;45.69;100897.16;1775121;80;21061;-70
2021/05/26 08:49:48;;;;;;;16.37;9.65;;;;;;;24.30;46.04;100900.27;1760563;80;21066;-71
2021/05/26 08:52:15;;;;;;;11.45;6.92;;;;;;;24.51;45.86;100901.82;1776534;80;21042;-71
2021/05/26 08:54:45;;;;;;;7.00;4.25;;;;;;;24.66;44.92;100900.59;1780829;80;21436;-73
2021/05/26 08:57:11;;;;;;;5.78;4.35;;;;;;;24.66;42.71;100893.80;1780559;80;21475;-71
2021/05/26 08:59:37;;;;;;;6.92;5.20;;;;;;;24.61;43.93;100891.03;1766801;81;21011;-72
2021/05/26 09:02:04;;;;;;;10.58;5.10;;;;;;;24.57;45.04;100890.73;1766787;80;21110;-70
2021/05/26 09:04:33;;;;;;;6.40;3.72;;;;;;;24.54;45.37;100884.45;1766782;81;20984;-70
2021/05/26 09:07:13;;;;;;;6.78;3.70;;;;;;;24.55;44.88;100899.66;1772009;80;20983;-71
2021/05/26 09:10:01;;;;;;;5.78;4.12;;;;;;;24.55;44.15;100886.07;1772176;80;21651;-69
2021/05/26 09:12:39;;;;;;;7.15;4.35;;;;;;;24.60;43.15;100885.30;1769337;80;21098;-72
2021/05/26 09:15:15;;;;;;;6.35;3.85;;;;;;;24.67;43.84;100898.13;1776077;80;21357;-71
2021/05/26 09:17:49;;;;;;;7.58;3.70;;;;;;;24.76;42.92;100878.91;1698801;83;20992;-71
2021/05/26 09:20:25;;;;;;;4.55;3.20;;;;;;;24.86;43.01;100888.53;1766866;80;21074;-71
2021/05/26 09:23:04;;;;;;;10.58;3.00;;;;;;;24.98;42.18;100891.06;1770820;80;20956;-72
2021/05/26 09:25:36;;;;;;;6.28;3.30;;;;;;;25.08;41.74;100889.79;1781028;79;20987;-69
2021/05/26 09:28:34;;;;;;;5.05;3.10;;;;;;;25.14;41.76;100889.55;1774008;79;21534;-70
2021/05/26 09:31:06;;;;;;;6.53;4.40;;;;;;;25.10;42.61;100886.25;1777233;80;21110;-70
2021/05/26 09:33:44;;;;;;;5.83;3.75;;;;;;;25.14;43.08;100889.55;1779353;80;20989;-73
2021/05/26 09:36:24;;;;;;;4.90;3.40;;;;;;;25.32;41.61;100893.72;1770651;79;20975;-71
2021/05/26 09:39:00;;;;;;;9.53;5.00;;;;;;;25.48;40.92;100894.09;1759983;81;21019;-69
2021/05/26 09:41:35;;;;;;;6.87;3.30;;;;;;;25.68;40.86;100880.56;1762520;81;21031;-70
2021/05/26 09:44:11;;;;;;;5.83;3.27;;;;;;;25.91;40.58;100871.11;1768937;81;21516;-70
2021/05/26 09:46:40;;;;;;;5.83;3.10;;;;;;;26.12;40.25;100867.91;1767642;80;21599;-70
2021/05/26 09:49:20;;;;;;;5.00;3.00;;;;;;;26.22;38.73;100883.75;1697917;84;21067;-69
2021/05/26 09:51:55;;;;;;;6.20;3.00;;;;;;;26.19;38.20;100874.75;1767556;80;21680;-69
2021/05/26 09:54:26;;;;;;;6.10;3.07;;;;;;;26.15;38.98;100866.81;1769526;80;21476;-69
2021/05/26 09:57:05;;;;;;;5.12;3.27;;;;;;;26.18;38.85;100875.84;1764059;80;21110;-70
2021/05/26 09:59:32;;;;;;;7.20;3.20;;;;;;;26.20;39.40;100868.23;1762611;80;21003;-67
2021/05/26 10:01:59;;;;;;;3.30;2.92;;;;;;;26.32;39.18;100874.78;1763099;80;20983;-68
2021/05/26 10:04:25;;;;;;;3.30;2.58;;;;;;;26.51;38.86;100880.52;1760291;80;21066;-68
2021/05/26 10:07:11;;;;;;;26.10;4.20;;;;;;;26.62;35.95;100869.88;1761253;80;21052;-67
2021/05/26 10:09:39;;;;;;;5.55;2.60;;;;;;;26.59;37.25;100865.77;1718354;80;21082;-67
2021/05/26 10:12:12;;;;;;;7.55;3.08;;;;;;;26.80;37.39;100867.95;1769984;80;20995;-67
2021/05/26 10:14:39;;;;;;;7.87;3.33;;;;;;;27.08;37.18;100867.37;1693594;84;21010;-64
2021/05/26 10:17:07;;;;;;;56.88;19.82;;;;;;;27.29;36.44;100883.98;1742885;81;21042;-69
2021/05/26 10:19:34;;;;;;;31.73;13.78;;;;;;;27.24;36.15;100870.88;1754676;81;21135;-68
2021/05/26 10:22:01;;;;;;;30.70;11.33;;;;;;;27.29;36.59;100863.52;1762350;81;20974;-71
2021/05/26 10:24:28;;;;;;;6.45;3.95;;;;;;;27.39;35.97;100865.92;1703725;81;21519;-69
2021/05/26 10:26:59;;;;;;;34.67;11.57;;;;;;;27.47;35.63;100854.45;1783133;80;21580;-74
2021/05/26 10:29:33;;;;;;;7.62;2.98;;;;;;;27.70;36.05;100853.80;1727512;81;21075;-69
2021/05/26 10:32:10;;;;;;;6.42;2.47;;;;;;;28.09;35.13;100872.47;1771087;80;20979;-69
2021/05/26 10:34:51;;;;;;;5.50;2.47;;;;;;;28.22;33.55;100864.16;1690002;83;21598;-67
2021/05/26 10:37:32;;;;;;;3.55;2.08;;;;;;;28.32;32.77;100860.02;1700309;83;21090;-67
2021/05/26 10:40:03;;;;;;;5.25;2.40;;;;;;;28.48;32.07;100847.83;1710724;83;21570;-68
2021/05/26 10:42:33;;;;;;;4.67;3.10;;;;;;;28.57;32.17;100842.56;1711599;83;21191;-67
2021/05/26 10:45:05;;;;;;;7.95;3.85;;;;;;;28.54;32.99;100841.77;1711706;83;21055;-66
2021/05/26 10:47:46;;;;;;;10.55;5.83;;;;;;;28.57;33.58;100839.28;1711755;83;20975;-67
2021/05/26 10:50:26;;;;;;;20.35;9.43;;;;;;;28.46;33.40;100845.94;1712276;83;21043;-67
2021/05/26 10:52:58;;;;;;;22.35;10.18;;;;;;;27.87;34.43;100844.71;1748000;80;21089;-66
2021/05/26 10:55:47;;;;;;;23.50;10.35;;;;;;;29.09;33.58;100841.23;1742794;82;21046;-67
2021/05/26 10:58:31;;;;;;;6.97;3.50;;;;;;;30.59;31.70;100845.51;1746751;82;21569;-68
2021/05/26 11:01:03;;;;;;;9.58;3.60;;;;;;;31.48;29.70;100835.83;1747499;81;21078;-70
2021/05/26 11:03:35;;;;;;;7.12;3.45;;;;;;;31.55;29.11;100833.24;1747654;81;20993;-69
2021/05/26 11:06:23;;;;;;;3.22;2.60;;;;;;;31.95;27.90;100845.51;1694663;82;20977;-68
2021/05/26 11:08:57;;;;;;;5.22;2.98;;;;;;;31.19;28.79;100837.27;1747510;81;21317;-67
2021/05/26 11:11:41;;;;;;;6.17;2.95;;;;;;;31.27;29.00;100832.45;1747368;82;20997;-68
2021/05/26 11:14:17;;;;;;;;;;;;;;;31.79;28.74;100838.76;1750361;80;21543;-69
2021/05/26 11:16:52;;;;;;;9.35;3.70;;;;;;;33.19;26.52;100831.40;1747701;81;20534;-67
2021/05/26 11:19:24;;;;;;;4.17;2.35;;;;;;;33.59;25.48;100832.12;1767902;80;21002;-67
2021/05/26 11:22:04;;;;;;;10.25;3.25;;;;;;;32.98;25.57;100821.22;1700265;84;20979;-69
2021/05/26 11:24:33;;;;;;;4.12;2.12;;;;;;;33.08;25.91;100822.33;1729569;83;21014;-68
2021/05/26 11:27:03;;;;;;;4.00;2.15;;;;;;;32.70;26.25;100826.95;1700045;84;21026;-68
2021/05/26 11:29:34;;;;;;;3.87;2.25;;;;;;;32.43;26.56;100831.20;1729406;83;21011;-67
2021/05/26 11:32:12;;;;;;;6.85;3.10;;;;;;;33.52;25.44;100824.91;1700544;84;21026;-68